sensor_id;sensor_type;location;lat;lon;timestamp;P1;durP1;ratioP1;P2;durP2;ratioP2
50161;SDS011;36061;48.116;11.612;2024-02-21T00:02:02;4.03;;;1.40;;
50161;SDS011;36061;48.116;11.612;2024-02-21T00:04:30;6.70;;;2.07;;
50161;SDS011;36061;48.116;11.612;2024-02-21T00:06:58;4.90;;;1.63;;
50161;SDS011;36061;48.116;11.612;2024-02-21T00:09:26;4.50;;;1.70;;
50161;SDS011;36061;48.116;11.612;2024-02-21T00:11:54;5.07;;;1.40;;
50161;SDS011;36061;48.116;11.612;2024-02-21T00:14:24;3.87;;;1.70;;
50161;SDS011;36061;48.116;11.612;2024-02-21T00:16:51;4.20;;;1.70;;
50161;SDS011;36061;48.116;11.612;2024-02-21T00:19:18;2.47;;;1.10;;
50161;SDS011;36061;48.116;11.612;2024-02-21T00:21:46;4.53;;;1.53;;
50161;SDS011;36061;48.116;11.612;2024-02-21T00:24:13;2.47;;;1.27;;
50161;SDS011;36061;48.116;11.612;2024-02-21T00:26:41;2.40;;;1.37;;
50161;SDS011;36061;48.116;11.612;2024-02-21T00:29:10;3.97;;;1.47;;
50161;SDS011;36061;48.116;11.612;2024-02-21T00:31:37;3.00;;;2.10;;
50161;SDS011;36061;48.116;11.612;2024-02-21T00:34:05;2.43;;;1.70;;
50161;SDS011;36061;48.116;11.612;2024-02-21T00:36:32;4.57;;;1.40;;
50161;SDS011;36061;48.116;11.612;2024-02-21T00:38:58;2.50;;;1.53;;
50161;SDS011;36061;48.116;11.612;2024-02-21T00:41:26;1.60;;;1.20;;
50161;SDS011;36061;48.116;11.612;2024-02-21T00:43:53;2.53;;;1.40;;
50161;SDS011;36061;48.116;11.612;2024-02-21T00:46:22;3.13;;;1.73;;
50161;SDS011;36061;48.116;11.612;2024-02-21T00:48:49;5.13;;;1.80;;
50161;SDS011;36061;48.116;11.612;2024-02-21T00:51:16;2.90;;;1.27;;
50161;SDS011;36061;48.116;11.612;2024-02-21T00:53:44;4.80;;;1.50;;
50161;SDS011;36061;48.116;11.612;2024-02-21T00:56:11;2.13;;;1.43;;
50161;SDS011;36061;48.116;11.612;2024-02-21T00:58:38;2.83;;;1.30;;
50161;SDS011;36061;48.116;11.612;2024-02-21T01:01:06;2.63;;;1.57;;
50161;SDS011;36061;48.116;11.612;2024-02-21T01:03:34;1.60;;;1.37;;
50161;SDS011;36061;48.116;11.612;2024-02-21T01:06:02;3.47;;;1.47;;
50161;SDS011;36061;48.116;11.612;2024-02-21T01:08:30;2.00;;;1.20;;
50161;SDS011;36061;48.116;11.612;2024-02-21T01:10:57;2.07;;;1.20;;
50161;SDS011;36061;48.116;11.612;2024-02-21T01:13:25;2.50;;;1.50;;
50161;SDS011;36061;48.116;11.612;2024-02-21T01:15:52;1.90;;;1.37;;
50161;SDS011;36061;48.116;11.612;2024-02-21T01:18:19;1.50;;;1.20;;
50161;SDS011;36061;48.116;11.612;2024-02-21T01:20:48;2.00;;;1.00;;
50161;SDS011;36061;48.116;11.612;2024-02-21T01:23:15;3.33;;;1.20;;
50161;SDS011;36061;48.116;11.612;2024-02-21T01:25:43;3.37;;;1.50;;
50161;SDS011;36061;48.116;11.612;2024-02-21T01:28:10;1.87;;;1.10;;
50161;SDS011;36061;48.116;11.612;2024-02-21T01:30:37;3.47;;;1.30;;
50161;SDS011;36061;48.116;11.612;2024-02-21T01:33:05;3.60;;;1.03;;
50161;SDS011;36061;48.116;11.612;2024-02-21T01:35:34;2.87;;;1.30;;
50161;SDS011;36061;48.116;11.612;2024-02-21T01:38:03;3.07;;;1.43;;
50161;SDS011;36061;48.116;11.612;2024-02-21T01:40:30;2.03;;;1.20;;
50161;SDS011;36061;48.116;11.612;2024-02-21T01:42:58;2.17;;;1.30;;
50161;SDS011;36061;48.116;11.612;2024-02-21T01:45:25;2.80;;;1.10;;
50161;SDS011;36061;48.116;11.612;2024-02-21T01:47:52;1.77;;;1.00;;
50161;SDS011;36061;48.116;11.612;2024-02-21T01:50:20;2.60;;;1.33;;
50161;SDS011;36061;48.116;11.612;2024-02-21T01:52:48;3.10;;;1.27;;
50161;SDS011;36061;48.116;11.612;2024-02-21T01:55:18;2.97;;;1.07;;
50161;SDS011;36061;48.116;11.612;2024-02-21T01:57:46;2.33;;;1.50;;
50161;SDS011;36061;48.116;11.612;2024-02-21T02:00:14;1.97;;;1.37;;
50161;SDS011;36061;48.116;11.612;2024-02-21T02:02:42;1.70;;;1.27;;
50161;SDS011;36061;48.116;11.612;2024-02-21T02:05:10;4.60;;;1.40;;
50161;SDS011;36061;48.116;11.612;2024-02-21T02:07:38;1.57;;;1.10;;
50161;SDS011;36061;48.116;11.612;2024-02-21T02:10:06;1.47;;;1.10;;
50161;SDS011;36061;48.116;11.612;2024-02-21T02:12:36;2.80;;;1.20;;
50161;SDS011;36061;48.116;11.612;2024-02-21T02:15:04;2.37;;;1.17;;
50161;SDS011;36061;48.116;11.612;2024-02-21T02:17:32;1.67;;;1.30;;
50161;SDS011;36061;48.116;11.612;2024-02-21T02:19:59;1.10;;;0.87;;
50161;SDS011;36061;48.116;11.612;2024-02-21T02:22:28;2.63;;;1.20;;
50161;SDS011;36061;48.116;11.612;2024-02-21T02:24:57;4.67;;;1.40;;
50161;SDS011;36061;48.116;11.612;2024-02-21T02:27:25;1.53;;;1.17;;
50161;SDS011;36061;48.116;11.612;2024-02-21T02:29:52;1.87;;;1.20;;
50161;SDS011;36061;48.116;11.612;2024-02-21T02:32:20;1.33;;;1.17;;
50161;SDS011;36061;48.116;11.612;2024-02-21T02:34:47;3.43;;;1.10;;
50161;SDS011;36061;48.116;11.612;2024-02-21T02:37:14;2.20;;;1.27;;
50161;SDS011;36061;48.116;11.612;2024-02-21T02:39:41;2.43;;;1.07;;
50161;SDS011;36061;48.116;11.612;2024-02-21T02:42:10;1.73;;;0.93;;
50161;SDS011;36061;48.116;11.612;2024-02-21T02:44:38;1.43;;;1.13;;
50161;SDS011;36061;48.116;11.612;2024-02-21T02:47:05;2.30;;;1.20;;
50161;SDS011;36061;48.116;11.612;2024-02-21T02:49:32;1.13;;;0.70;;
50161;SDS011;36061;48.116;11.612;2024-02-21T02:52:00;1.63;;;0.97;;
50161;SDS011;36061;48.116;11.612;2024-02-21T02:54:27;2.53;;;1.20;;
50161;SDS011;36061;48.116;11.612;2024-02-21T02:56:54;1.03;;;0.90;;
50161;SDS011;36061;48.116;11.612;2024-02-21T02:59:23;3.17;;;1.07;;
50161;SDS011;36061;48.116;11.612;2024-02-21T03:01:50;2.50;;;0.90;;
50161;SDS011;36061;48.116;11.612;2024-02-21T03:04:18;1.50;;;0.90;;
50161;SDS011;36061;48.116;11.612;2024-02-21T03:06:45;1.77;;;0.90;;
50161;SDS011;36061;48.116;11.612;2024-02-21T03:09:12;1.27;;;0.97;;
50161;SDS011;36061;48.116;11.612;2024-02-21T03:11:41;1.73;;;0.90;;
50161;SDS011;36061;48.116;11.612;2024-02-21T03:14:09;3.50;;;1.23;;
50161;SDS011;36061;48.116;11.612;2024-02-21T03:16:39;1.43;;;0.90;;
50161;SDS011;36061;48.116;11.612;2024-02-21T03:19:06;0.80;;;0.80;;
50161;SDS011;36061;48.116;11.612;2024-02-21T03:21:33;0.80;;;0.80;;
50161;SDS011;36061;48.116;11.612;2024-02-21T03:24:01;1.43;;;0.90;;
50161;SDS011;36061;48.116;11.612;2024-02-21T03:26:28;3.07;;;0.83;;
50161;SDS011;36061;48.116;11.612;2024-02-21T03:28:55;2.07;;;0.80;;
50161;SDS011;36061;48.116;11.612;2024-02-21T03:31:23;2.20;;;0.73;;
50161;SDS011;36061;48.116;11.612;2024-02-21T03:33:51;1.03;;;0.90;;
50161;SDS011;36061;48.116;11.612;2024-02-21T03:36:19;1.37;;;1.00;;
50161;SDS011;36061;48.116;11.612;2024-02-21T03:38:46;2.70;;;0.97;;
50161;SDS011;36061;48.116;11.612;2024-02-21T03:41:14;1.93;;;1.10;;
50161;SDS011;36061;48.116;11.612;2024-02-21T03:43:41;1.93;;;0.83;;
50161;SDS011;36061;48.116;11.612;2024-02-21T03:46:08;2.50;;;0.97;;
50161;SDS011;36061;48.116;11.612;2024-02-21T03:48:36;2.40;;;1.03;;
50161;SDS011;36061;48.116;11.612;2024-02-21T03:51:05;2.30;;;1.67;;
50161;SDS011;36061;48.116;11.612;2024-02-21T03:53:32;0.97;;;0.93;;
50161;SDS011;36061;48.116;11.612;2024-02-21T03:56:01;2.17;;;1.07;;
50161;SDS011;36061;48.116;11.612;2024-02-21T03:58:29;1.50;;;1.20;;
50161;SDS011;36061;48.116;11.612;2024-02-21T04:00:56;1.57;;;0.90;;
50161;SDS011;36061;48.116;11.612;2024-02-21T04:03:26;1.67;;;1.00;;
50161;SDS011;36061;48.116;11.612;2024-02-21T04:05:53;1.20;;;0.80;;
50161;SDS011;36061;48.116;11.612;2024-02-21T04:08:22;2.83;;;1.27;;
50161;SDS011;36061;48.116;11.612;2024-02-21T04:10:50;2.70;;;1.10;;
50161;SDS011;36061;48.116;11.612;2024-02-21T04:13:17;3.37;;;1.00;;
50161;SDS011;36061;48.116;11.612;2024-02-21T04:15:45;1.80;;;1.00;;
50161;SDS011;36061;48.116;11.612;2024-02-21T04:18:12;1.80;;;0.70;;
50161;SDS011;36061;48.116;11.612;2024-02-21T04:20:40;1.33;;;0.93;;
50161;SDS011;36061;48.116;11.612;2024-02-21T04:23:07;1.63;;;1.10;;
50161;SDS011;36061;48.116;11.612;2024-02-21T04:25:36;1.00;;;0.90;;
50161;SDS011;36061;48.116;11.612;2024-02-21T04:28:04;2.87;;;1.10;;
50161;SDS011;36061;48.116;11.612;2024-02-21T04:30:32;1.97;;;1.00;;
50161;SDS011;36061;48.116;11.612;2024-02-21T04:32:59;1.30;;;1.00;;
50161;SDS011;36061;48.116;11.612;2024-02-21T04:35:26;0.60;;;0.60;;
50161;SDS011;36061;48.116;11.612;2024-02-21T04:37:54;0.80;;;0.63;;
50161;SDS011;36061;48.116;11.612;2024-02-21T04:40:22;1.57;;;1.07;;
50161;SDS011;36061;48.116;11.612;2024-02-21T04:42:50;1.00;;;0.90;;
50161;SDS011;36061;48.116;11.612;2024-02-21T04:45:18;1.50;;;0.90;;
50161;SDS011;36061;48.116;11.612;2024-02-21T04:47:45;1.60;;;1.00;;
50161;SDS011;36061;48.116;11.612;2024-02-21T04:50:12;2.50;;;1.37;;
50161;SDS011;36061;48.116;11.612;2024-02-21T04:52:40;1.67;;;1.00;;
50161;SDS011;36061;48.116;11.612;2024-02-21T04:55:07;2.77;;;1.13;;
50161;SDS011;36061;48.116;11.612;2024-02-21T04:57:35;1.13;;;1.00;;
50161;SDS011;36061;48.116;11.612;2024-02-21T05:00:04;1.63;;;1.17;;
50161;SDS011;36061;48.116;11.612;2024-02-21T05:02:32;3.60;;;1.00;;
50161;SDS011;36061;48.116;11.612;2024-02-21T05:05:00;1.00;;;0.90;;
50161;SDS011;36061;48.116;11.612;2024-02-21T05:07:27;2.20;;;1.17;;
50161;SDS011;36061;48.116;11.612;2024-02-21T05:09:55;1.53;;;1.10;;
50161;SDS011;36061;48.116;11.612;2024-02-21T05:12:22;1.40;;;0.70;;
50161;SDS011;36061;48.116;11.612;2024-02-21T05:14:49;3.70;;;1.23;;
50161;SDS011;36061;48.116;11.612;2024-02-21T05:17:18;4.17;;;1.10;;
50161;SDS011;36061;48.116;11.612;2024-02-21T05:19:45;1.53;;;0.80;;
50161;SDS011;36061;48.116;11.612;2024-02-21T05:22:13;1.87;;;0.80;;
50161;SDS011;36061;48.116;11.612;2024-02-21T05:24:40;2.70;;;0.73;;
50161;SDS011;36061;48.116;11.612;2024-02-21T05:27:07;0.77;;;0.70;;
50161;SDS011;36061;48.116;11.612;2024-02-21T05:29:35;2.57;;;0.80;;
50161;SDS011;36061;48.116;11.612;2024-02-21T05:32:02;3.80;;;1.00;;
50161;SDS011;36061;48.116;11.612;2024-02-21T05:34:31;2.80;;;0.90;;
50161;SDS011;36061;48.116;11.612;2024-02-21T05:36:59;2.00;;;1.10;;
50161;SDS011;36061;48.116;11.612;2024-02-21T05:39:26;1.20;;;1.00;;
50161;SDS011;36061;48.116;11.612;2024-02-21T05:41:54;0.97;;;0.80;;
50161;SDS011;36061;48.116;11.612;2024-02-21T05:44:22;1.50;;;1.10;;
50161;SDS011;36061;48.116;11.612;2024-02-21T05:46:49;2.40;;;0.80;;
50161;SDS011;36061;48.116;11.612;2024-02-21T05:49:16;1.67;;;0.77;;
50161;SDS011;36061;48.116;11.612;2024-02-21T05:51:45;2.97;;;0.97;;
50161;SDS011;36061;48.116;11.612;2024-02-21T05:54:12;0.70;;;0.70;;
50161;SDS011;36061;48.116;11.612;2024-02-21T05:56:43;2.63;;;0.97;;
50161;SDS011;36061;48.116;11.612;2024-02-21T05:59:11;1.30;;;1.20;;
50161;SDS011;36061;48.116;11.612;2024-02-21T06:01:38;2.37;;;1.00;;
50161;SDS011;36061;48.116;11.612;2024-02-21T06:04:06;1.33;;;1.00;;
50161;SDS011;36061;48.116;11.612;2024-02-21T06:06:33;2.00;;;1.07;;
50161;SDS011;36061;48.116;11.612;2024-02-21T06:09:02;1.50;;;0.90;;
50161;SDS011;36061;48.116;11.612;2024-02-21T06:11:29;2.33;;;0.83;;
50161;SDS011;36061;48.116;11.612;2024-02-21T06:13:57;1.27;;;0.83;;
50161;SDS011;36061;48.116;11.612;2024-02-21T06:16:24;5.77;;;1.20;;
50161;SDS011;36061;48.116;11.612;2024-02-21T06:18:51;5.60;;;1.27;;
50161;SDS011;36061;48.116;11.612;2024-02-21T06:21:19;1.00;;;0.90;;
50161;SDS011;36061;48.116;11.612;2024-02-21T06:23:46;3.27;;;0.80;;
50161;SDS011;36061;48.116;11.612;2024-02-21T06:26:15;3.70;;;1.03;;
50161;SDS011;36061;48.116;11.612;2024-02-21T06:28:42;2.27;;;1.47;;
50161;SDS011;36061;48.116;11.612;2024-02-21T06:31:12;1.20;;;1.10;;
50161;SDS011;36061;48.116;11.612;2024-02-21T06:33:40;4.27;;;1.00;;
50161;SDS011;36061;48.116;11.612;2024-02-21T06:36:07;1.67;;;0.90;;
50161;SDS011;36061;48.116;11.612;2024-02-21T06:38:35;2.87;;;1.40;;
50161;SDS011;36061;48.116;11.612;2024-02-21T06:41:02;0.97;;;0.93;;
50161;SDS011;36061;48.116;11.612;2024-02-21T06:43:31;3.30;;;1.00;;
50161;SDS011;36061;48.116;11.612;2024-02-21T06:45:58;2.77;;;1.00;;
50161;SDS011;36061;48.116;11.612;2024-02-21T06:48:26;1.57;;;1.03;;
50161;SDS011;36061;48.116;11.612;2024-02-21T06:50:53;4.30;;;1.37;;
50161;SDS011;36061;48.116;11.612;2024-02-21T06:53:20;3.77;;;1.30;;
50161;SDS011;36061;48.116;11.612;2024-02-21T06:55:48;0.80;;;0.80;;
50161;SDS011;36061;48.116;11.612;2024-02-21T06:58:15;1.70;;;0.87;;
50161;SDS011;36061;48.116;11.612;2024-02-21T07:00:44;2.03;;;1.00;;
50161;SDS011;36061;48.116;11.612;2024-02-21T07:03:11;2.27;;;1.10;;
50161;SDS011;36061;48.116;11.612;2024-02-21T07:05:39;1.27;;;0.50;;
50161;SDS011;36061;48.116;11.612;2024-02-21T07:08:06;1.50;;;0.97;;
50161;SDS011;36061;48.116;11.612;2024-02-21T07:10:33;1.23;;;0.73;;
50161;SDS011;36061;48.116;11.612;2024-02-21T07:13:01;4.63;;;1.10;;
50161;SDS011;36061;48.116;11.612;2024-02-21T07:15:28;0.83;;;0.77;;
50161;SDS011;36061;48.116;11.612;2024-02-21T07:17:57;1.00;;;0.80;;
50161;SDS011;36061;48.116;11.612;2024-02-21T07:20:25;4.47;;;1.17;;
50161;SDS011;36061;48.116;11.612;2024-02-21T07:22:52;1.17;;;1.00;;
50161;SDS011;36061;48.116;11.612;2024-02-21T07:25:20;3.70;;;1.30;;
50161;SDS011;36061;48.116;11.612;2024-02-21T07:27:47;3.47;;;2.13;;
50161;SDS011;36061;48.116;11.612;2024-02-21T07:30:14;10.80;;;2.10;;
50161;SDS011;36061;48.116;11.612;2024-02-21T07:32:42;2.63;;;1.67;;
50161;SDS011;36061;48.116;11.612;2024-02-21T07:35:11;1.80;;;0.77;;
50161;SDS011;36061;48.116;11.612;2024-02-21T07:37:38;1.50;;;0.87;;
50161;SDS011;36061;48.116;11.612;2024-02-21T07:40:06;0.70;;;0.70;;
50161;SDS011;36061;48.116;11.612;2024-02-21T07:42:38;1.53;;;0.90;;
50161;SDS011;36061;48.116;11.612;2024-02-21T07:45:06;2.40;;;0.53;;
50161;SDS011;36061;48.116;11.612;2024-02-21T07:47:34;2.10;;;0.97;;
50161;SDS011;36061;48.116;11.612;2024-02-21T07:50:04;1.63;;;0.83;;
50161;SDS011;36061;48.116;11.612;2024-02-21T07:52:33;1.27;;;0.70;;
50161;SDS011;36061;48.116;11.612;2024-02-21T07:55:01;3.73;;;1.30;;
50161;SDS011;36061;48.116;11.612;2024-02-21T07:57:29;2.73;;;0.80;;
50161;SDS011;36061;48.116;11.612;2024-02-21T07:59:57;1.50;;;0.77;;
50161;SDS011;36061;48.116;11.612;2024-02-21T08:02:24;2.30;;;1.00;;
50161;SDS011;36061;48.116;11.612;2024-02-21T08:04:51;3.47;;;1.10;;
50161;SDS011;36061;48.116;11.612;2024-02-21T08:07:19;1.23;;;0.90;;
50161;SDS011;36061;48.116;11.612;2024-02-21T08:09:47;2.93;;;1.40;;
50161;SDS011;36061;48.116;11.612;2024-02-21T08:12:15;2.93;;;0.90;;
50161;SDS011;36061;48.116;11.612;2024-02-21T08:14:42;2.07;;;0.73;;
50161;SDS011;36061;48.116;11.612;2024-02-21T08:17:09;5.23;;;1.40;;
50161;SDS011;36061;48.116;11.612;2024-02-21T08:19:37;2.13;;;0.93;;
50161;SDS011;36061;48.116;11.612;2024-02-21T08:22:04;2.47;;;1.17;;
50161;SDS011;36061;48.116;11.612;2024-02-21T08:24:32;1.10;;;0.70;;
50161;SDS011;36061;48.116;11.612;2024-02-21T08:27:01;1.37;;;0.93;;
50161;SDS011;36061;48.116;11.612;2024-02-21T08:29:28;1.33;;;0.90;;
50161;SDS011;36061;48.116;11.612;2024-02-21T08:31:55;2.30;;;1.10;;
50161;SDS011;36061;48.116;11.612;2024-02-21T08:34:23;3.40;;;1.30;;
50161;SDS011;36061;48.116;11.612;2024-02-21T08:36:51;1.70;;;0.60;;
50161;SDS011;36061;48.116;11.612;2024-02-21T08:39:18;0.80;;;0.57;;
50161;SDS011;36061;48.116;11.612;2024-02-21T08:41:45;3.57;;;0.83;;
50161;SDS011;36061;48.116;11.612;2024-02-21T08:44:14;3.57;;;1.47;;
50161;SDS011;36061;48.116;11.612;2024-02-21T08:46:41;0.70;;;0.70;;
50161;SDS011;36061;48.116;11.612;2024-02-21T08:49:09;2.03;;;0.90;;
50161;SDS011;36061;48.116;11.612;2024-02-21T08:51:37;1.33;;;0.70;;
50161;SDS011;36061;48.116;11.612;2024-02-21T08:54:05;1.43;;;1.10;;
50161;SDS011;36061;48.116;11.612;2024-02-21T08:56:33;2.10;;;0.93;;
50161;SDS011;36061;48.116;11.612;2024-02-21T08:59:00;2.63;;;0.60;;
50161;SDS011;36061;48.116;11.612;2024-02-21T09:01:30;1.83;;;0.90;;
50161;SDS011;36061;48.116;11.612;2024-02-21T09:03:59;0.70;;;0.70;;
50161;SDS011;36061;48.116;11.612;2024-02-21T09:06:28;2.80;;;0.80;;
50161;SDS011;36061;48.116;11.612;2024-02-21T09:08:56;0.70;;;0.70;;
50161;SDS011;36061;48.116;11.612;2024-02-21T09:11:24;2.87;;;0.80;;
50161;SDS011;36061;48.116;11.612;2024-02-21T09:13:52;0.90;;;0.80;;
50161;SDS011;36061;48.116;11.612;2024-02-21T09:16:20;1.57;;;0.80;;
50161;SDS011;36061;48.116;11.612;2024-02-21T09:18:50;2.10;;;0.70;;
50161;SDS011;36061;48.116;11.612;2024-02-21T09:21:18;0.60;;;0.60;;
50161;SDS011;36061;48.116;11.612;2024-02-21T09:23:45;5.97;;;0.77;;
50161;SDS011;36061;48.116;11.612;2024-02-21T09:26:12;1.67;;;0.90;;
50161;SDS011;36061;48.116;11.612;2024-02-21T09:28:42;0.83;;;0.53;;
50161;SDS011;36061;48.116;11.612;2024-02-21T09:31:09;0.93;;;0.83;;
50161;SDS011;36061;48.116;11.612;2024-02-21T09:33:37;1.33;;;0.80;;
50161;SDS011;36061;48.116;11.612;2024-02-21T09:36:06;0.60;;;0.50;;
50161;SDS011;36061;48.116;11.612;2024-02-21T09:38:33;0.77;;;0.70;;
50161;SDS011;36061;48.116;11.612;2024-02-21T09:41:08;0.60;;;0.60;;
50161;SDS011;36061;48.116;11.612;2024-02-21T09:43:43;4.47;;;0.77;;
50161;SDS011;36061;48.116;11.612;2024-02-21T09:46:13;0.70;;;0.70;;
50161;SDS011;36061;48.116;11.612;2024-02-21T09:48:49;5.37;;;1.33;;
50161;SDS011;36061;48.116;11.612;2024-02-21T09:51:31;1.90;;;0.73;;
50161;SDS011;36061;48.116;11.612;2024-02-21T09:54:01;2.93;;;0.80;;
50161;SDS011;36061;48.116;11.612;2024-02-21T09:56:29;2.80;;;1.30;;
50161;SDS011;36061;48.116;11.612;2024-02-21T09:58:57;2.47;;;1.17;;
50161;SDS011;36061;48.116;11.612;2024-02-21T10:01:26;2.33;;;1.27;;
50161;SDS011;36061;48.116;11.612;2024-02-21T10:03:53;1.70;;;0.90;;
50161;SDS011;36061;48.116;11.612;2024-02-21T10:06:21;3.07;;;1.10;;
50161;SDS011;36061;48.116;11.612;2024-02-21T10:08:53;0.83;;;0.70;;
50161;SDS011;36061;48.116;11.612;2024-02-21T10:11:23;2.07;;;0.87;;
50161;SDS011;36061;48.116;11.612;2024-02-21T10:13:51;3.27;;;0.83;;
50161;SDS011;36061;48.116;11.612;2024-02-21T10:16:29;3.03;;;1.00;;
50161;SDS011;36061;48.116;11.612;2024-02-21T10:18:56;1.90;;;0.87;;
50161;SDS011;36061;48.116;11.612;2024-02-21T10:21:23;1.57;;;0.83;;
50161;SDS011;36061;48.116;11.612;2024-02-21T10:23:52;1.93;;;0.63;;
50161;SDS011;36061;48.116;11.612;2024-02-21T10:26:20;1.03;;;0.70;;
50161;SDS011;36061;48.116;11.612;2024-02-21T10:28:47;1.90;;;0.83;;
50161;SDS011;36061;48.116;11.612;2024-02-21T10:31:23;1.50;;;0.90;;
50161;SDS011;36061;48.116;11.612;2024-02-21T10:33:54;1.13;;;0.70;;
50161;SDS011;36061;48.116;11.612;2024-02-21T10:36:22;1.47;;;0.90;;
50161;SDS011;36061;48.116;11.612;2024-02-21T10:38:52;0.80;;;0.70;;
50161;SDS011;36061;48.116;11.612;2024-02-21T10:41:20;3.33;;;0.80;;
50161;SDS011;36061;48.116;11.612;2024-02-21T10:43:50;2.23;;;0.90;;
50161;SDS011;36061;48.116;11.612;2024-02-21T10:46:19;0.77;;;0.77;;
50161;SDS011;36061;48.116;11.612;2024-02-21T10:48:48;1.17;;;0.77;;
50161;SDS011;36061;48.116;11.612;2024-02-21T10:51:20;2.10;;;1.00;;
50161;SDS011;36061;48.116;11.612;2024-02-21T10:53:56;1.37;;;0.77;;
50161;SDS011;36061;48.116;11.612;2024-02-21T10:56:30;3.67;;;1.03;;
50161;SDS011;36061;48.116;11.612;2024-02-21T10:59:01;0.60;;;0.60;;
50161;SDS011;36061;48.116;11.612;2024-02-21T11:01:29;0.70;;;0.70;;
50161;SDS011;36061;48.116;11.612;2024-02-21T11:03:58;2.87;;;0.63;;
50161;SDS011;36061;48.116;11.612;2024-02-21T11:06:28;1.27;;;0.80;;
50161;SDS011;36061;48.116;11.612;2024-02-21T11:09:01;0.70;;;0.70;;
50161;SDS011;36061;48.116;11.612;2024-02-21T11:11:29;1.37;;;0.50;;
50161;SDS011;36061;48.116;11.612;2024-02-21T11:14:08;0.63;;;0.60;;
50161;SDS011;36061;48.116;11.612;2024-02-21T11:16:37;0.80;;;0.47;;
50161;SDS011;36061;48.116;11.612;2024-02-21T11:19:06;0.77;;;0.60;;
50161;SDS011;36061;48.116;11.612;2024-02-21T11:21:34;0.60;;;0.57;;
50161;SDS011;36061;48.116;11.612;2024-02-21T11:24:04;0.40;;;0.40;;
50161;SDS011;36061;48.116;11.612;2024-02-21T11:26:32;1.03;;;0.50;;
50161;SDS011;36061;48.116;11.612;2024-02-21T11:28:59;1.00;;;0.60;;
50161;SDS011;36061;48.116;11.612;2024-02-21T11:31:37;0.77;;;0.60;;
50161;SDS011;36061;48.116;11.612;2024-02-21T11:34:08;0.87;;;0.43;;
50161;SDS011;36061;48.116;11.612;2024-02-21T11:36:39;0.70;;;0.70;;
50161;SDS011;36061;48.116;11.612;2024-02-21T11:39:19;0.50;;;0.50;;
50161;SDS011;36061;48.116;11.612;2024-02-21T11:41:47;1.27;;;0.97;;
50161;SDS011;36061;48.116;11.612;2024-02-21T11:44:25;3.80;;;0.80;;
50161;SDS011;36061;48.116;11.612;2024-02-21T11:46:52;1.70;;;0.70;;
50161;SDS011;36061;48.116;11.612;2024-02-21T11:49:20;1.43;;;0.70;;
50161;SDS011;36061;48.116;11.612;2024-02-21T11:51:48;2.93;;;0.80;;
50161;SDS011;36061;48.116;11.612;2024-02-21T11:54:25;1.43;;;0.53;;
50161;SDS011;36061;48.116;11.612;2024-02-21T11:56:53;0.80;;;0.70;;
50161;SDS011;36061;48.116;11.612;2024-02-21T11:59:20;2.77;;;1.20;;
50161;SDS011;36061;48.116;11.612;2024-02-21T12:01:48;1.43;;;0.73;;
50161;SDS011;36061;48.116;11.612;2024-02-21T12:04:17;0.60;;;0.60;;
50161;SDS011;36061;48.116;11.612;2024-02-21T12:06:46;1.63;;;0.97;;
50161;SDS011;36061;48.116;11.612;2024-02-21T12:09:13;0.77;;;0.57;;
50161;SDS011;36061;48.116;11.612;2024-02-21T12:11:43;0.50;;;0.50;;
50161;SDS011;36061;48.116;11.612;2024-02-21T12:14:15;0.40;;;0.40;;
50161;SDS011;36061;48.116;11.612;2024-02-21T12:16:44;0.60;;;0.60;;
50161;SDS011;36061;48.116;11.612;2024-02-21T12:19:13;2.30;;;0.73;;
50161;SDS011;36061;48.116;11.612;2024-02-21T12:21:42;3.53;;;0.83;;
50161;SDS011;36061;48.116;11.612;2024-02-21T12:24:13;2.23;;;0.77;;
50161;SDS011;36061;48.116;11.612;2024-02-21T12:26:42;1.07;;;0.53;;
50161;SDS011;36061;48.116;11.612;2024-02-21T12:29:10;0.70;;;0.70;;
50161;SDS011;36061;48.116;11.612;2024-02-21T12:31:37;2.10;;;0.73;;
50161;SDS011;36061;48.116;11.612;2024-02-21T12:34:05;0.87;;;0.50;;
50161;SDS011;36061;48.116;11.612;2024-02-21T12:36:36;1.87;;;0.90;;
50161;SDS011;36061;48.116;11.612;2024-02-21T12:39:08;0.40;;;0.40;;
50161;SDS011;36061;48.116;11.612;2024-02-21T12:41:35;1.17;;;0.70;;
50161;SDS011;36061;48.116;11.612;2024-02-21T12:44:05;1.83;;;0.63;;
50161;SDS011;36061;48.116;11.612;2024-02-21T12:46:32;0.60;;;0.60;;
50161;SDS011;36061;48.116;11.612;2024-02-21T12:48:59;0.53;;;0.53;;
50161;SDS011;36061;48.116;11.612;2024-02-21T12:51:27;0.77;;;0.53;;
50161;SDS011;36061;48.116;11.612;2024-02-21T12:53:55;2.53;;;0.50;;
50161;SDS011;36061;48.116;11.612;2024-02-21T12:56:22;1.13;;;0.67;;
50161;SDS011;36061;48.116;11.612;2024-02-21T12:58:51;1.40;;;0.53;;
50161;SDS011;36061;48.116;11.612;2024-02-21T13:01:20;1.00;;;0.50;;
50161;SDS011;36061;48.116;11.612;2024-02-21T13:03:47;2.07;;;0.90;;
50161;SDS011;36061;48.116;11.612;2024-02-21T13:06:15;2.10;;;0.97;;
50161;SDS011;36061;48.116;11.612;2024-02-21T13:08:44;1.90;;;0.80;;
50161;SDS011;36061;48.116;11.612;2024-02-21T13:11:12;2.20;;;0.47;;
50161;SDS011;36061;48.116;11.612;2024-02-21T13:13:40;0.80;;;0.50;;
50161;SDS011;36061;48.116;11.612;2024-02-21T13:16:07;2.10;;;1.13;;
50161;SDS011;36061;48.116;11.612;2024-02-21T13:18:37;1.10;;;1.00;;
50161;SDS011;36061;48.116;11.612;2024-02-21T13:21:05;0.87;;;0.70;;
50161;SDS011;36061;48.116;11.612;2024-02-21T13:23:33;0.73;;;0.73;;
50161;SDS011;36061;48.116;11.612;2024-02-21T13:26:00;1.47;;;0.77;;
50161;SDS011;36061;48.116;11.612;2024-02-21T13:28:28;1.43;;;0.60;;
50161;SDS011;36061;48.116;11.612;2024-02-21T13:30:55;0.97;;;0.40;;
50161;SDS011;36061;48.116;11.612;2024-02-21T13:33:23;4.13;;;0.77;;
50161;SDS011;36061;48.116;11.612;2024-02-21T13:35:52;1.03;;;0.60;;
50161;SDS011;36061;48.116;11.612;2024-02-21T13:38:20;0.50;;;0.50;;
50161;SDS011;36061;48.116;11.612;2024-02-21T13:40:47;0.70;;;0.70;;
50161;SDS011;36061;48.116;11.612;2024-02-21T13:43:16;0.87;;;0.50;;
50161;SDS011;36061;48.116;11.612;2024-02-21T13:45:45;0.83;;;0.50;;
50161;SDS011;36061;48.116;11.612;2024-02-21T13:48:23;1.13;;;0.60;;
50161;SDS011;36061;48.116;11.612;2024-02-21T13:50:52;0.50;;;0.50;;
50161;SDS011;36061;48.116;11.612;2024-02-21T13:53:20;1.07;;;0.67;;
50161;SDS011;36061;48.116;11.612;2024-02-21T13:55:48;0.97;;;0.87;;
50161;SDS011;36061;48.116;11.612;2024-02-21T13:58:16;1.50;;;0.90;;
50161;SDS011;36061;48.116;11.612;2024-02-21T14:00:44;1.60;;;0.73;;
50161;SDS011;36061;48.116;11.612;2024-02-21T14:03:11;1.47;;;0.70;;
50161;SDS011;36061;48.116;11.612;2024-02-21T14:05:39;1.10;;;0.60;;
50161;SDS011;36061;48.116;11.612;2024-02-21T14:08:08;1.03;;;0.93;;
50161;SDS011;36061;48.116;11.612;2024-02-21T14:10:35;1.53;;;1.00;;
50161;SDS011;36061;48.116;11.612;2024-02-21T14:13:03;2.33;;;0.60;;
50161;SDS011;36061;48.116;11.612;2024-02-21T14:15:31;0.60;;;0.50;;
50161;SDS011;36061;48.116;11.612;2024-02-21T14:17:58;1.40;;;0.63;;
50161;SDS011;36061;48.116;11.612;2024-02-21T14:20:25;2.47;;;0.87;;
50161;SDS011;36061;48.116;11.612;2024-02-21T14:22:53;1.93;;;0.83;;
50161;SDS011;36061;48.116;11.612;2024-02-21T14:25:22;2.50;;;0.70;;
50161;SDS011;36061;48.116;11.612;2024-02-21T14:27:49;3.00;;;0.47;;
50161;SDS011;36061;48.116;11.612;2024-02-21T14:30:17;2.30;;;0.60;;
50161;SDS011;36061;48.116;11.612;2024-02-21T14:32:44;0.93;;;0.70;;
50161;SDS011;36061;48.116;11.612;2024-02-21T14:35:12;1.03;;;0.93;;
50161;SDS011;36061;48.116;11.612;2024-02-21T14:37:40;0.70;;;0.60;;
50161;SDS011;36061;48.116;11.612;2024-02-21T14:40:08;0.80;;;0.70;;